Observations for CULDROSE NAVY, United Kingdom (EGDR)

EGDR 140750Z 27005KT 9999 -DZ FEW003 SCT008 OVC012 17/16 Q1018 GRN TEMPO 3000 -DZ BR SCT003 BKN010 YLO2 
EGDR 140650Z 26005KT 9999 FEW003 SCT012 BKN016 17/16 Q1018 GRN TEMPO 3000 -DZ BR SCT003 BKN010  
EGDR 140550Z 28006KT 8000 HZ FEW002 SCT010 BKN018 17/16 Q1018 GRN TEMPO 5000 -DZ SCT005 BKN010 YLO1 
EGDR 140450Z AUTO 29008KT 9999 // FEW002/// BKN005/// BKN015/// 17/16 Q1017 
EGDR 140350Z AUTO 24006KT 0250 // VV/// 16/16 Q1017 
EGDR 140250Z AUTO 24003KT 9999 // BKN005/// BKN011/// 16/15 Q1017   
EGDR 140150Z AUTO 25004KT 9999 // BKN010/// BKN036/// 16/14 Q1017   
EGDR 140050Z AUTO 25004KT 9999 // FEW010/// BKN012/// 15/14 Q1016   
EGDR 132350Z AUTO 25005KT 9999 // SCT014/// 15/14 Q1016 
EGDR 132250Z AUTO 29007KT 9999 // FEW015/// 15/14 Q1016 
EGDR 132150Z AUTO 29004KT 9999 // NCD 15/14 Q1016   
EGDR 132050Z AUTO 31006KT 9999 // NCD 16/14 Q1015   
EGDR 131950Z 30006KT 9999 FEW010 SCT300 17/14 Q1015 BLU BECMG SCT010 GRN
EGDR 131850Z 32010KT 9999 FEW010 SCT035 18/14 Q1014 BLU BECMG SCT010 GRN
EGDR 131750Z AUTO 32013KT 9999 // FEW014/// BKN033/// 19/15 Q1013   
EGDR 131650Z AUTO 32012KT 9999 // FEW017/// 20/15 Q1013 
EGDR 131550Z AUTO 31011KT 9999 // FEW020/// 20/14 Q1013 
EGDR 131450Z 32009KT 9999 SCT018 19/14 Q1012 WHT NOSIG  
EGDR 131350Z 32010KT 9999 SCT018 21/15 Q1012 WHT NOSIG  
EGDR 131250Z 33009KT 9999 SCT018 20/15 Q1012 WHT NOSIG  
EGDR 131150Z 30010KT 9999 SCT019 20/15 Q1011 WHT NOSIG  
EGDR 131050Z 29008KT 9999 SCT020 20/15 Q1011 WHT NOSIG  
EGDR 130950Z 30008KT 9999 FEW018 19/14 Q1010 BLU NOSIG  
EGDR 130850Z 29008KT 9999 FEW014 19/14 Q1010 BLU NOSIG  
EGDR 130750Z 29009KT 9999 FEW014 17/15 Q1009 BLU NOSIG